createdAt,value
2024-05-09T00:00:48.442Z,12.60
2024-05-09T00:03:36.905Z,12.60
2024-05-09T00:06:05.719Z,13.60
2024-05-09T00:08:34.586Z,11.70
2024-05-09T00:11:03.217Z,11.20
2024-05-09T00:13:31.710Z,12.40
2024-05-09T00:16:00.117Z,13.50
2024-05-09T00:18:28.594Z,10.70
2024-05-09T00:20:57.086Z,15.10
2024-05-09T00:23:25.622Z,15.20
2024-05-09T00:25:54.111Z,13.30
2024-05-09T00:28:23.195Z,14.00
2024-05-09T00:30:52.471Z,12.00
2024-05-09T00:33:21.286Z,14.20
2024-05-09T00:35:49.905Z,11.30
2024-05-09T00:38:18.352Z,16.50
2024-05-09T00:40:46.816Z,12.00
2024-05-09T00:43:15.680Z,12.60
2024-05-09T00:45:44.392Z,14.30
2024-05-09T00:48:19.627Z,11.70
2024-05-09T00:50:50.533Z,12.20
2024-05-09T00:53:19.307Z,19.00
2024-05-09T00:55:48.160Z,14.50
2024-05-09T00:58:21.158Z,13.00
2024-05-09T01:00:51.069Z,11.70
2024-05-09T01:03:20.366Z,12.30
2024-05-09T01:05:48.905Z,11.50
2024-05-09T01:08:18.214Z,11.90
2024-05-09T01:10:48.534Z,12.50
2024-05-09T01:13:17.356Z,15.80
2024-05-09T01:15:48.028Z,14.40
2024-05-09T01:18:16.907Z,11.80
2024-05-09T01:20:45.722Z,14.10
2024-05-09T01:23:16.030Z,12.00
2024-05-09T01:25:46.691Z,14.90
2024-05-09T01:28:16.304Z,15.60
2024-05-09T01:30:45.071Z,13.10
2024-05-09T01:33:13.925Z,13.00
2024-05-09T01:35:43.244Z,12.70
2024-05-09T01:38:17.246Z,14.20
2024-05-09T01:40:47.089Z,14.00
2024-05-09T01:43:16.092Z,12.70
2024-05-09T01:45:44.710Z,12.30
2024-05-09T01:48:13.378Z,14.60
2024-05-09T01:50:43.273Z,14.80
2024-05-09T01:53:14.919Z,14.20
2024-05-09T01:55:44.515Z,15.80
2024-05-09T01:58:13.226Z,12.90
2024-05-09T02:00:43.199Z,13.20
2024-05-09T02:03:16.409Z,15.40
2024-05-09T02:05:50.053Z,16.20
2024-05-09T02:08:21.259Z,16.40
2024-05-09T02:10:50.768Z,14.40
2024-05-09T02:13:19.631Z,13.60
2024-05-09T02:15:52.051Z,16.70
2024-05-09T02:18:20.897Z,14.40
2024-05-09T02:20:49.694Z,14.10
2024-05-09T02:23:18.377Z,15.80
2024-05-09T02:25:46.826Z,16.50
2024-05-09T02:28:15.228Z,12.90
2024-05-09T02:30:43.635Z,12.90
2024-05-09T02:33:13.958Z,16.20
2024-05-09T02:35:44.123Z,15.00
2024-05-09T02:38:13.682Z,15.10
2024-05-09T02:40:42.232Z,16.20
2024-05-09T02:43:12.985Z,17.20
2024-05-09T02:45:42.113Z,11.40
2024-05-09T02:48:12.089Z,14.40
2024-05-09T02:50:42.037Z,17.20
2024-05-09T02:53:14.756Z,16.80
2024-05-09T02:55:43.542Z,19.50
2024-05-09T02:58:12.400Z,18.10
2024-05-09T03:00:42.548Z,15.20
2024-05-09T03:03:14.336Z,14.90
2024-05-09T03:05:46.469Z,14.40
2024-05-09T03:08:15.904Z,18.30
2024-05-09T03:10:44.327Z,17.50
2024-05-09T03:13:15.215Z,18.10
2024-05-09T03:15:45.536Z,14.70
2024-05-09T03:18:15.596Z,13.80
2024-05-09T03:20:44.662Z,16.20
2024-05-09T03:23:13.476Z,15.20
2024-05-09T03:25:41.986Z,15.70
2024-05-09T03:28:11.421Z,15.20
2024-05-09T03:30:42.528Z,14.20
2024-05-09T03:33:20.529Z,14.50
2024-05-09T03:35:49.805Z,15.80
2024-05-09T03:38:18.447Z,15.50
2024-05-09T03:40:49.932Z,14.80
2024-05-09T03:43:19.921Z,15.50
2024-05-09T03:45:50.476Z,15.40
2024-05-09T03:48:19.239Z,18.70
2024-05-09T03:50:48.179Z,14.30
2024-05-09T03:53:16.929Z,17.10
2024-05-09T03:55:48.689Z,16.30
2024-05-09T03:58:17.117Z,13.40
2024-05-09T04:00:45.630Z,15.70
2024-05-09T04:03:14.873Z,14.00
2024-05-09T04:05:44.550Z,16.70
2024-05-09T04:08:15.662Z,14.00
2024-05-09T04:10:44.475Z,14.70
2024-05-09T04:13:13.103Z,17.00
2024-05-09T04:15:41.626Z,13.40
2024-05-09T04:18:10.320Z,14.00
2024-05-09T04:20:40.863Z,14.40
2024-05-09T04:23:14.607Z,12.40
2024-05-09T04:25:45.382Z,15.20
2024-05-09T04:28:14.496Z,13.20
2024-05-09T04:30:43.643Z,12.50
2024-05-09T04:33:15.072Z,15.30
2024-05-09T04:35:44.271Z,13.70
2024-05-09T04:38:14.644Z,14.30
2024-05-09T04:40:43.846Z,14.60
2024-05-09T04:43:18.487Z,12.20
2024-05-09T04:45:47.259Z,15.40
2024-05-09T04:48:16.371Z,13.10
2024-05-09T04:50:45.252Z,16.80
2024-05-09T04:53:17.185Z,15.60
2024-05-09T04:55:46.255Z,14.00
2024-05-09T04:58:14.760Z,12.00
2024-05-09T05:00:44.262Z,14.20
2024-05-09T05:03:15.272Z,16.10
2024-05-09T05:05:47.027Z,17.00
2024-05-09T05:08:17.983Z,14.40
2024-05-09T05:10:48.689Z,15.60
2024-05-09T05:13:21.659Z,12.10
2024-05-09T05:15:58.381Z,14.10
2024-05-09T05:18:28.295Z,15.20
2024-05-09T05:20:58.291Z,13.90
2024-05-09T05:23:27.056Z,14.50
2024-05-09T05:25:58.035Z,13.50
2024-05-09T05:28:26.396Z,12.20
2024-05-09T05:30:54.741Z,18.60
2024-05-09T05:33:23.596Z,15.30
2024-05-09T05:35:52.148Z,16.50
2024-05-09T05:38:23.870Z,16.30
2024-05-09T05:40:55.119Z,13.80
2024-05-09T05:43:23.644Z,15.60
2024-05-09T05:45:52.018Z,13.50
2024-05-09T05:48:20.534Z,14.00
2024-05-09T05:50:49.163Z,16.10
2024-05-09T05:53:17.667Z,16.90
2024-05-09T05:55:46.280Z,16.40
2024-05-09T05:58:15.073Z,14.70
2024-05-09T06:00:44.253Z,13.20
2024-05-09T06:03:14.164Z,16.20
2024-05-09T06:05:44.184Z,14.00
2024-05-09T06:08:13.056Z,16.60
2024-05-09T06:10:42.105Z,15.80
2024-05-09T06:13:13.117Z,15.40
2024-05-09T06:15:42.707Z,17.20
2024-05-09T06:18:12.622Z,17.00
2024-05-09T06:20:43.588Z,16.30
2024-05-09T06:23:14.288Z,13.70
2024-05-09T06:25:43.970Z,14.20
2024-05-09T06:28:12.469Z,13.40
2024-05-09T06:30:42.640Z,18.40
2024-05-09T06:33:14.350Z,12.10
2024-05-09T06:35:46.903Z,14.70
2024-05-09T06:38:15.428Z,10.80
2024-05-09T06:40:44.644Z,12.40
2024-05-09T06:43:15.571Z,13.90
2024-05-09T06:45:49.619Z,16.10
2024-05-09T06:48:19.733Z,13.00
2024-05-09T06:50:49.195Z,13.40
2024-05-09T06:53:23.465Z,14.30
2024-05-09T06:55:52.045Z,12.70
2024-05-09T06:58:20.495Z,14.20
2024-05-09T07:00:48.915Z,10.00
2024-05-09T07:03:19.062Z,12.20
2024-05-09T07:05:49.435Z,14.30
2024-05-09T07:08:19.042Z,13.10
2024-05-09T07:10:47.926Z,15.00
2024-05-09T07:13:16.657Z,12.30
2024-05-09T07:15:45.113Z,12.80
2024-05-09T07:18:17.829Z,13.00
2024-05-09T07:20:49.333Z,14.00
2024-05-09T07:23:19.264Z,11.20
2024-05-09T07:25:48.054Z,10.30
2024-05-09T07:28:19.147Z,12.40
2024-05-09T07:30:47.967Z,11.60
2024-05-09T07:33:22.963Z,11.70
2024-05-09T07:35:52.949Z,9.10
2024-05-09T07:38:21.807Z,11.80
2024-05-09T07:40:50.475Z,15.40
2024-05-09T07:43:18.906Z,12.50
2024-05-09T07:45:52.727Z,9.80
2024-05-09T07:52:39.102Z,11.90
2024-05-09T07:53:48.903Z,8.60
2024-05-09T07:56:22.699Z,9.70
2024-05-09T07:58:56.306Z,8.80
2024-05-09T08:01:26.482Z,10.50
2024-05-09T08:03:56.264Z,8.40
2024-05-09T08:06:25.418Z,9.10
2024-05-09T08:08:54.317Z,9.80
2024-05-09T08:11:23.677Z,7.90
2024-05-09T08:13:52.150Z,9.40
2024-05-09T08:16:20.695Z,9.00
2024-05-09T08:18:50.360Z,8.80
2024-05-09T08:21:19.289Z,9.90
2024-05-09T08:23:47.776Z,6.20
2024-05-09T08:26:16.183Z,6.20
2024-05-09T08:28:44.708Z,8.80
2024-05-09T08:31:13.337Z,4.70
2024-05-09T08:33:47.763Z,5.20
2024-05-09T08:36:17.328Z,6.50
2024-05-09T08:38:45.868Z,5.10
2024-05-09T08:41:15.802Z,9.10
2024-05-09T08:43:44.536Z,5.20
2024-05-09T08:46:14.223Z,7.80
2024-05-09T08:48:45.633Z,4.40
2024-05-09T08:51:14.499Z,8.20
2024-05-09T08:53:42.997Z,11.90
2024-05-09T08:56:11.666Z,6.30
2024-05-09T08:58:41.920Z,7.20
2024-05-09T09:01:12.245Z,6.30
2024-05-09T09:03:42.388Z,7.00
2024-05-09T09:06:15.063Z,6.60
2024-05-09T09:08:45.098Z,6.60
2024-05-09T09:11:13.604Z,9.00
2024-05-09T09:13:42.019Z,3.40
2024-05-09T09:16:10.423Z,4.90
2024-05-09T09:18:39.392Z,3.30
2024-05-09T09:21:10.617Z,5.90
2024-05-09T09:23:41.990Z,3.90
2024-05-09T09:26:16.241Z,7.50
2024-05-09T09:28:45.025Z,7.30
2024-05-09T09:31:19.584Z,6.80
2024-05-09T09:33:48.696Z,5.70
2024-05-09T09:36:18.363Z,5.50
2024-05-09T09:38:48.524Z,5.70
2024-05-09T09:41:17.855Z,3.10
2024-05-09T09:43:46.688Z,4.70
2024-05-09T09:46:17.054Z,5.70
2024-05-09T09:48:47.183Z,6.50
2024-05-09T09:51:16.436Z,5.90
2024-05-09T09:53:46.027Z,10.70
2024-05-09T09:56:17.947Z,5.50
2024-05-09T09:58:48.215Z,5.40
2024-05-09T10:01:16.790Z,5.90
2024-05-09T10:03:45.478Z,7.30
2024-05-09T10:06:15.413Z,9.30
2024-05-09T10:08:46.764Z,7.10
2024-05-09T10:11:21.099Z,5.30
2024-05-09T10:13:51.878Z,3.00
2024-05-09T10:16:23.032Z,4.70
2024-05-09T10:18:51.709Z,4.40
2024-05-09T10:21:20.843Z,4.90
2024-05-09T10:24:07.107Z,4.00
2024-05-09T10:26:38.324Z,5.10
2024-05-09T10:29:14.680Z,5.30
2024-05-09T10:31:45.626Z,3.60
2024-05-09T10:34:24.079Z,7.90
2024-05-09T10:36:54.441Z,5.60
2024-05-09T10:39:25.782Z,4.40
2024-05-09T10:41:54.259Z,8.20
2024-05-09T10:44:22.579Z,5.30
2024-05-09T10:46:50.961Z,5.40
2024-05-09T10:49:19.381Z,4.30
2024-05-09T10:51:48.601Z,3.40
2024-05-09T10:54:17.373Z,3.30
2024-05-09T10:56:45.818Z,5.00
2024-05-09T10:59:14.167Z,5.00
2024-05-09T11:01:42.664Z,5.60
2024-05-09T11:04:11.385Z,4.60
2024-05-09T11:06:40.390Z,7.70
2024-05-09T11:09:09.627Z,5.30
2024-05-09T11:11:38.128Z,5.80
2024-05-09T11:14:13.535Z,5.60
2024-05-09T11:16:41.893Z,3.80
2024-05-09T11:19:14.558Z,6.70
2024-05-09T11:21:43.256Z,5.40
2024-05-09T11:24:12.150Z,2.70
2024-05-09T11:26:40.530Z,2.70
2024-05-09T11:29:08.917Z,7.80
2024-05-09T11:31:47.794Z,5.20
2024-05-09T11:34:16.414Z,6.40
2024-05-09T11:36:44.946Z,5.40
2024-05-09T11:39:14.600Z,5.40
2024-05-09T11:41:43.088Z,5.30
2024-05-09T11:44:12.964Z,3.00
2024-05-09T11:46:42.702Z,7.00
2024-05-09T11:49:11.623Z,3.50
2024-05-09T11:51:40.157Z,3.50
2024-05-09T11:54:08.608Z,9.40
2024-05-09T11:56:37.175Z,4.20
2024-05-09T11:59:05.596Z,4.60
2024-05-09T12:01:34.140Z,9.00
2024-05-09T12:04:03.197Z,6.00
2024-05-09T12:06:32.112Z,5.20
2024-05-09T12:09:00.623Z,8.10
2024-05-09T12:11:29.119Z,6.50
2024-05-09T12:13:57.481Z,4.50
2024-05-09T12:16:26.244Z,5.90
2024-05-09T12:18:55.530Z,7.00
2024-05-09T12:21:23.997Z,4.40
2024-05-09T12:23:52.525Z,4.70
2024-05-09T12:26:20.981Z,4.70
2024-05-09T12:28:49.339Z,6.50
2024-05-09T12:31:17.773Z,4.10
2024-05-09T12:33:46.762Z,4.30
2024-05-09T12:36:15.266Z,3.30
2024-05-09T12:38:43.721Z,3.50
2024-05-09T12:41:12.118Z,4.30
2024-05-09T12:43:40.517Z,4.00
2024-05-09T12:46:08.939Z,4.50
2024-05-09T12:48:37.610Z,4.70
2024-05-09T12:51:06.208Z,22.80
2024-05-09T12:53:36.399Z,6.40
2024-05-09T12:56:06.657Z,6.10
2024-05-09T12:58:36.913Z,4.00
2024-05-09T13:01:05.556Z,5.20
2024-05-09T13:03:34.143Z,11.20
2024-05-09T13:06:02.766Z,9.10
2024-05-09T13:08:31.282Z,4.00
2024-05-09T13:11:00.308Z,4.00
2024-05-09T13:13:29.218Z,4.80
2024-05-09T13:15:57.654Z,3.40
2024-05-09T13:18:26.104Z,4.70
2024-05-09T13:20:54.428Z,2.50
2024-05-09T13:23:22.811Z,3.10
2024-05-09T13:25:51.221Z,8.40
2024-05-09T13:28:19.685Z,4.70
2024-05-09T13:30:48.328Z,4.80
2024-05-09T13:33:16.854Z,6.00
2024-05-09T13:35:49.233Z,3.20
2024-05-09T13:38:20.254Z,4.40
2024-05-09T13:40:50.422Z,4.30
2024-05-09T13:43:20.742Z,5.30
2024-05-09T13:45:49.639Z,4.50
2024-05-09T13:48:19.632Z,4.50
2024-05-09T13:50:48.538Z,2.70
2024-05-09T13:53:17.056Z,3.10
2024-05-09T13:55:45.626Z,2.10
2024-05-09T13:58:14.508Z,5.10
2024-05-09T14:00:47.889Z,6.50
2024-05-09T14:03:20.603Z,3.40
2024-05-09T14:05:51.570Z,4.10
2024-05-09T14:08:22.132Z,3.10
2024-05-09T14:10:52.206Z,5.40
2024-05-09T14:13:21.103Z,4.90
2024-05-09T14:15:49.996Z,3.30
2024-05-09T14:18:18.864Z,5.20
2024-05-09T14:20:47.282Z,5.10
2024-05-09T14:23:18.200Z,4.10
2024-05-09T14:25:52.368Z,5.30
2024-05-09T14:28:22.941Z,5.60
2024-05-09T14:30:51.726Z,3.50
2024-05-09T14:33:25.433Z,3.30
2024-05-09T14:35:54.521Z,3.50
2024-05-09T14:38:27.821Z,2.60
2024-05-09T14:40:56.396Z,5.40
2024-05-09T14:43:26.588Z,6.90
2024-05-09T14:45:55.943Z,4.20
2024-05-09T14:48:24.613Z,4.00
2024-05-09T14:50:53.107Z,5.50
2024-05-09T14:53:23.444Z,3.80
2024-05-09T14:55:51.927Z,3.20
2024-05-09T14:58:20.605Z,3.80
2024-05-09T15:00:51.735Z,3.60
2024-05-09T15:03:21.607Z,5.20
2024-05-09T15:05:51.826Z,4.70
2024-05-09T15:08:20.733Z,4.80
2024-05-09T15:10:50.228Z,4.20
2024-05-09T15:13:21.680Z,6.40
2024-05-09T15:15:50.538Z,2.50
2024-05-09T15:18:19.368Z,4.00
2024-05-09T15:20:48.292Z,5.50
2024-05-09T15:23:16.908Z,8.70
2024-05-09T15:25:45.359Z,5.70
2024-05-09T15:28:13.934Z,6.10
2024-05-09T15:30:46.142Z,5.70
2024-05-09T15:33:15.410Z,3.10
2024-05-09T15:35:46.131Z,4.70
2024-05-09T15:38:15.853Z,3.90
2024-05-09T15:40:44.480Z,3.40
2024-05-09T15:43:13.244Z,4.80
2024-05-09T15:45:41.916Z,3.70
2024-05-09T15:48:11.225Z,7.40
2024-05-09T15:50:42.089Z,5.40
2024-05-09T15:53:13.404Z,4.50
2024-05-09T15:55:43.234Z,6.40
2024-05-09T15:58:12.866Z,5.50
2024-05-09T16:00:44.788Z,5.00
2024-05-09T16:03:15.278Z,6.40
2024-05-09T16:05:48.169Z,5.00
2024-05-09T16:08:17.177Z,9.10
2024-05-09T16:10:47.125Z,3.70
2024-05-09T16:13:17.316Z,4.10
2024-05-09T16:15:46.526Z,3.90
2024-05-09T16:18:15.596Z,6.00
2024-05-09T16:20:45.658Z,3.00
2024-05-09T16:23:15.975Z,3.70
2024-05-09T16:25:47.469Z,6.00
2024-05-09T16:28:16.789Z,5.90
2024-05-09T16:30:45.317Z,4.20
2024-05-09T16:33:13.981Z,3.60
2024-05-09T16:35:42.428Z,7.20
2024-05-09T16:38:10.848Z,3.70
2024-05-09T16:40:41.119Z,5.30
2024-05-09T16:43:13.104Z,8.70
2024-05-09T16:45:44.578Z,7.30
2024-05-09T16:48:14.062Z,20.60
2024-05-09T16:50:43.483Z,13.40
2024-05-09T16:53:13.550Z,10.70
2024-05-09T16:55:41.984Z,8.10
2024-05-09T16:58:12.268Z,10.60
2024-05-09T17:00:43.445Z,10.80
2024-05-09T17:03:15.202Z,10.40
2024-05-09T17:05:48.508Z,12.10
2024-05-09T17:08:20.382Z,6.30
2024-05-09T17:10:49.936Z,5.50
2024-05-09T17:13:19.375Z,7.30
2024-05-09T17:15:52.307Z,5.70
2024-05-09T17:18:21.037Z,6.60
2024-05-09T17:20:51.342Z,6.40
2024-05-09T17:23:19.872Z,5.60
2024-05-09T17:25:48.246Z,7.10
2024-05-09T17:28:17.175Z,10.70
2024-05-09T17:30:45.699Z,7.70
2024-05-09T17:33:14.395Z,7.50
2024-05-09T17:35:45.487Z,7.00
2024-05-09T17:38:13.944Z,6.90
2024-05-09T18:11:36.444Z,11.30
2024-05-09T18:14:05.147Z,11.60
2024-05-09T18:16:33.717Z,7.10
2024-05-09T18:19:02.564Z,6.70
2024-05-09T18:21:31.338Z,7.10
2024-05-09T18:24:00.340Z,7.10
2024-05-09T18:26:29.214Z,8.10
2024-05-09T18:28:57.853Z,6.30
2024-05-09T18:31:26.349Z,6.40
2024-05-09T18:33:55.075Z,9.60
2024-05-09T18:36:23.805Z,7.90
2024-05-09T18:38:52.567Z,9.50
2024-05-09T18:41:21.832Z,6.30
2024-05-09T18:43:51.038Z,8.00
2024-05-09T18:46:19.710Z,6.00
2024-05-09T18:48:48.196Z,15.70
2024-05-09T18:51:16.991Z,10.80
2024-05-09T18:53:46.168Z,10.10
2024-05-09T18:56:14.720Z,7.80
2024-05-09T18:58:43.144Z,6.30
2024-05-09T19:01:11.689Z,9.80
2024-05-09T19:03:40.819Z,9.00
2024-05-09T19:06:09.547Z,9.00
2024-05-09T19:08:40.362Z,7.40
2024-05-09T19:11:08.905Z,7.60
2024-05-09T19:13:37.382Z,8.60
2024-05-09T19:16:06.343Z,8.60
2024-05-09T19:18:36.179Z,10.40
2024-05-09T19:21:05.145Z,7.60
2024-05-09T19:23:38.075Z,7.90
2024-05-09T19:26:08.409Z,8.70
2024-05-09T19:28:36.755Z,7.50
2024-05-09T19:31:05.557Z,6.40
2024-05-09T19:33:34.062Z,8.00
2024-05-09T19:36:03.195Z,11.50
2024-05-09T19:38:32.065Z,8.00
2024-05-09T19:41:00.725Z,9.70
2024-05-09T19:43:31.405Z,9.20
2024-05-09T19:46:01.297Z,12.70
2024-05-09T19:48:29.779Z,10.60
2024-05-09T19:50:58.261Z,9.10
2024-05-09T19:53:26.640Z,12.50
2024-05-09T19:55:55.599Z,8.30
2024-05-09T19:58:41.785Z,9.70
2024-05-09T20:01:10.284Z,8.80
2024-05-09T20:03:38.977Z,8.60
2024-05-09T20:06:07.700Z,9.40
2024-05-09T20:08:36.323Z,6.10
2024-05-09T20:11:05.077Z,9.60
2024-05-09T20:13:33.497Z,9.60
2024-05-09T20:16:02.194Z,10.40
2024-05-09T20:18:30.795Z,10.70
2024-05-09T20:21:00.098Z,9.20
2024-05-09T20:23:29.234Z,8.00
2024-05-09T20:25:58.510Z,7.20
2024-05-09T20:28:27.393Z,9.60
2024-05-09T20:30:56.072Z,8.60
2024-05-09T20:33:24.548Z,6.90
2024-05-09T20:35:55.407Z,10.20
2024-05-09T20:38:23.896Z,7.00
2024-05-09T20:40:52.604Z,7.70
2024-05-09T20:43:21.418Z,10.10
2024-05-09T20:45:50.131Z,8.90
2024-05-09T20:48:18.715Z,9.90
2024-05-09T20:50:49.385Z,6.90
2024-05-09T20:53:17.846Z,11.50
2024-05-09T20:55:47.167Z,8.50
2024-05-09T20:58:15.570Z,8.50
2024-05-09T21:00:45.817Z,9.50
2024-05-09T21:03:17.303Z,7.60
2024-05-09T21:05:48.392Z,13.70
2024-05-09T21:08:17.515Z,9.20
2024-05-09T21:10:46.054Z,10.50
2024-05-09T21:13:14.895Z,7.70
2024-05-09T21:15:44.774Z,11.10
2024-05-09T21:18:13.280Z,9.20
2024-05-09T21:20:42.330Z,8.40
2024-05-09T21:23:10.920Z,8.40
2024-05-09T21:25:39.595Z,9.60
2024-05-09T21:28:08.205Z,9.70
2024-05-09T21:30:41.805Z,8.00
2024-05-09T21:33:13.860Z,9.10
2024-05-09T21:35:44.346Z,8.00
2024-05-09T21:38:14.699Z,9.40
2024-05-09T21:40:44.568Z,8.60
2024-05-09T21:43:14.283Z,9.00
2024-05-09T21:45:43.341Z,10.10
2024-05-09T21:48:13.476Z,9.20
2024-05-09T21:50:42.695Z,9.90
2024-05-09T21:53:12.606Z,8.90
2024-05-09T21:55:47.347Z,7.80
2024-05-09T21:58:16.087Z,6.50
2024-05-09T22:00:46.358Z,11.70
2024-05-09T22:03:15.475Z,10.80
2024-05-09T22:05:45.206Z,8.80
2024-05-09T22:08:14.176Z,8.30
2024-05-09T22:10:42.977Z,12.00
2024-05-09T22:13:11.585Z,9.90
2024-05-09T22:15:40.778Z,7.60
2024-05-09T22:18:11.063Z,8.50
2024-05-09T22:20:45.458Z,12.80
2024-05-09T22:23:15.792Z,7.40
2024-05-09T22:25:44.606Z,10.20
2024-05-09T22:28:17.443Z,9.30
2024-05-09T22:30:47.036Z,8.90
2024-05-09T22:33:16.379Z,9.70
2024-05-09T22:35:45.144Z,7.60
2024-05-09T22:38:13.867Z,9.80
2024-05-09T22:40:47.705Z,7.70
2024-05-09T22:43:21.498Z,9.60
2024-05-09T22:45:56.897Z,8.50
2024-05-09T22:48:26.289Z,8.60
2024-05-09T22:50:55.224Z,10.30
2024-05-09T22:53:25.563Z,9.20
2024-05-09T22:55:54.491Z,7.70
2024-05-09T22:58:23.578Z,10.80
2024-05-09T23:00:52.730Z,7.80
2024-05-09T23:03:22.668Z,8.80
2024-05-09T23:05:53.334Z,9.50
2024-05-09T23:08:21.938Z,11.20
2024-05-09T23:10:50.929Z,8.20
2024-05-09T23:13:19.702Z,7.60
2024-05-09T23:15:48.362Z,8.60
2024-05-09T23:18:17.027Z,6.90
2024-05-09T23:20:45.484Z,12.20
2024-05-09T23:23:13.935Z,7.30
2024-05-09T23:25:42.373Z,9.00
2024-05-09T23:28:11.796Z,8.40
2024-05-09T23:30:41.474Z,9.10
2024-05-09T23:33:13.166Z,9.10
2024-05-09T23:35:44.374Z,9.30
2024-05-09T23:38:13.825Z,9.30
2024-05-09T23:40:43.291Z,8.70
2024-05-09T23:43:14.223Z,9.70
2024-05-09T23:45:43.816Z,10.20
2024-05-09T23:48:12.529Z,9.80
2024-05-09T23:50:41.837Z,11.50
2024-05-09T23:53:11.179Z,9.80
2024-05-09T23:55:40.519Z,8.20
2024-05-09T23:58:11.234Z,8.60
